createdAt,value
2018-07-13T00:00:01.851Z,98.14
2018-07-13T00:01:03.341Z,98.14
2018-07-13T00:02:01.256Z,98.24
2018-07-13T00:03:02.288Z,98.33
2018-07-13T00:04:01.313Z,98.05
2018-07-13T00:05:01.199Z,98.05
2018-07-13T00:06:18.979Z,98.14
2018-07-13T00:07:00.471Z,97.56
2018-07-13T00:08:00.491Z,97.47
2018-07-13T00:09:00.514Z,97.56
2018-07-13T00:10:01.242Z,98.05
2018-07-13T00:11:01.085Z,97.47
2018-07-13T00:12:01.300Z,97.28
2018-07-13T00:13:01.507Z,97.56
2018-07-13T00:14:01.782Z,97.47
2018-07-13T00:15:00.468Z,97.56
2018-07-13T00:16:01.756Z,96.99
2018-07-13T00:17:01.741Z,97.47
2018-07-13T00:18:01.118Z,96.99
2018-07-13T00:19:01.014Z,96.70
2018-07-13T00:20:01.034Z,96.42
2018-07-13T00:21:01.279Z,96.80
2018-07-13T00:22:01.807Z,96.80
2018-07-13T00:23:01.208Z,96.99
2018-07-13T00:24:01.428Z,96.80
2018-07-13T00:25:01.289Z,96.42
2018-07-13T00:26:01.001Z,96.56
2018-07-13T00:27:00.538Z,95.51
2018-07-13T00:28:01.601Z,95.84
2018-07-13T00:29:01.066Z,95.65
2018-07-13T00:30:01.265Z,95.21
2018-07-13T00:31:01.051Z,95.51
2018-07-13T00:32:01.034Z,94.84
2018-07-13T00:33:00.573Z,95.31
2018-07-13T00:34:01.365Z,95.51
2018-07-13T00:35:01.021Z,95.31
2018-07-13T00:36:01.733Z,94.74
2018-07-13T00:37:00.733Z,95.31
2018-07-13T00:38:01.664Z,95.51
2018-07-13T00:39:01.380Z,95.31
2018-07-13T00:40:01.771Z,95.03
2018-07-13T00:41:01.204Z,94.74
2018-07-13T00:42:00.588Z,94.93
2018-07-13T00:43:01.578Z,94.54
2018-07-13T00:44:01.943Z,94.17
2018-07-13T00:45:01.714Z,93.97
2018-07-13T00:46:02.363Z,93.68
2018-07-13T00:47:01.923Z,93.40
2018-07-13T00:48:01.690Z,93.11
2018-07-13T00:49:00.636Z,93.01
2018-07-13T00:50:00.668Z,93.30
2018-07-13T00:51:00.964Z,93.11
2018-07-13T00:52:01.584Z,93.30
2018-07-13T00:53:01.469Z,93.26
2018-07-13T00:54:01.067Z,92.58
2018-07-13T00:55:00.872Z,92.97
2018-07-13T00:56:01.453Z,92.58
2018-07-13T00:57:01.565Z,92.10
2018-07-13T00:58:00.879Z,92.49
2018-07-13T00:59:02.455Z,92.30
2018-07-13T01:00:00.768Z,92.20
2018-07-13T01:01:02.960Z,91.53
2018-07-13T01:02:00.894Z,92.10
2018-07-13T01:03:00.870Z,92.10
2018-07-13T01:04:01.313Z,91.43
2018-07-13T01:05:01.092Z,91.14
2018-07-13T01:06:01.508Z,91.24
2018-07-13T01:07:01.429Z,90.67
2018-07-13T01:08:01.889Z,90.86
2018-07-13T01:09:03.170Z,90.19
2018-07-13T01:10:01.618Z,90.19
2018-07-13T01:11:01.543Z,90.09
2018-07-13T01:12:01.557Z,90.28
2018-07-13T01:13:01.274Z,89.61
2018-07-13T01:14:01.119Z,89.90
2018-07-13T01:15:00.867Z,89.42
2018-07-13T01:16:00.879Z,89.80
2018-07-13T01:17:01.091Z,90.00
2018-07-13T01:18:01.029Z,89.71
2018-07-13T01:19:00.829Z,89.80
2018-07-13T01:20:01.295Z,90.00
2018-07-13T01:21:01.166Z,89.42
2018-07-13T01:22:00.985Z,89.51
2018-07-13T01:23:01.005Z,89.23
2018-07-13T01:24:01.305Z,88.99
2018-07-13T01:25:00.907Z,88.80
2018-07-13T01:26:01.305Z,88.23
2018-07-13T01:27:00.808Z,88.37
2018-07-13T01:28:00.890Z,88.61
2018-07-13T01:29:01.823Z,88.51
2018-07-13T01:30:01.608Z,88.23
2018-07-13T01:31:01.111Z,88.23
2018-07-13T01:32:00.996Z,87.55
2018-07-13T01:33:01.018Z,87.65
2018-07-13T01:34:01.647Z,87.27
2018-07-13T01:35:02.677Z,87.46
2018-07-13T01:36:01.028Z,87.17
2018-07-13T01:37:00.960Z,87.27
2018-07-13T01:38:00.849Z,86.79
2018-07-13T01:40:03.195Z,86.69
2018-07-13T01:41:01.647Z,86.12
2018-07-13T01:42:01.189Z,86.41
2018-07-13T01:43:01.529Z,86.31
2018-07-13T01:44:01.747Z,86.31
2018-07-13T01:45:01.036Z,85.83
2018-07-13T01:46:01.096Z,85.45
2018-07-13T01:47:01.115Z,85.45
2018-07-13T01:48:01.069Z,85.74
2018-07-13T01:49:01.608Z,85.74
2018-07-13T01:50:00.848Z,85.45
2018-07-13T01:51:01.138Z,85.45
2018-07-13T01:52:01.140Z,85.06
2018-07-13T01:53:01.418Z,85.74
2018-07-13T01:54:01.409Z,85.25
2018-07-13T01:55:01.018Z,84.97
2018-07-13T01:56:01.484Z,84.97
2018-07-13T01:57:01.440Z,84.97
2018-07-13T01:58:01.068Z,85.06
2018-07-13T01:59:01.593Z,85.06
2018-07-13T02:00:01.189Z,84.88
2018-07-13T02:01:01.142Z,84.49
2018-07-13T02:02:00.990Z,84.45
2018-07-13T02:03:00.979Z,84.20
2018-07-13T02:04:01.739Z,84.30
2018-07-13T02:05:00.882Z,84.39
2018-07-13T02:06:01.090Z,84.68
2018-07-13T02:07:01.060Z,84.49
2018-07-13T02:08:01.018Z,84.35
2018-07-13T02:09:01.047Z,84.58
2018-07-13T02:10:01.054Z,84.11
2018-07-13T02:11:01.215Z,84.01
2018-07-13T02:12:00.990Z,83.53
2018-07-13T02:13:00.785Z,83.82
2018-07-13T02:14:01.597Z,83.97
2018-07-13T02:15:00.980Z,83.82
2018-07-13T02:16:01.507Z,83.78
2018-07-13T02:17:01.119Z,83.59
2018-07-13T02:18:01.956Z,84.06
2018-07-13T02:19:01.325Z,83.59
2018-07-13T02:20:01.138Z,83.11
2018-07-13T02:21:01.722Z,83.20
2018-07-13T02:22:01.143Z,82.73
2018-07-13T02:23:01.085Z,82.43
2018-07-13T02:24:01.980Z,82.63
2018-07-13T02:25:01.297Z,82.73
2018-07-13T02:26:01.047Z,83.01
2018-07-13T02:27:00.980Z,82.06
2018-07-13T02:28:00.989Z,82.24
2018-07-13T02:29:01.314Z,82.15
2018-07-13T02:30:01.811Z,82.06
2018-07-13T02:31:01.839Z,82.06
2018-07-13T02:32:02.241Z,81.57
2018-07-13T02:33:01.099Z,81.38
2018-07-13T02:34:03.347Z,81.48
2018-07-13T02:35:01.203Z,81.48
2018-07-13T02:36:01.489Z,81.67
2018-07-13T02:37:01.639Z,81.77
2018-07-13T02:38:02.077Z,81.57
2018-07-13T02:39:01.227Z,81.38
2018-07-13T02:40:01.075Z,81.00
2018-07-13T02:41:02.288Z,80.81
2018-07-13T02:42:01.114Z,80.90
2018-07-13T02:43:01.217Z,80.43
2018-07-13T02:44:02.502Z,80.62
2018-07-13T02:45:01.072Z,80.24
2018-07-13T02:46:01.248Z,80.52
2018-07-13T02:47:01.990Z,79.85
2018-07-13T02:48:01.698Z,80.43
2018-07-13T02:49:02.053Z,79.66
2018-07-13T02:50:01.922Z,79.75
2018-07-13T02:51:03.184Z,80.14
2018-07-13T02:52:01.804Z,79.66
2018-07-13T02:53:01.279Z,79.37
2018-07-13T02:54:01.124Z,79.18
2018-07-13T02:55:02.065Z,79.72
2018-07-13T02:56:01.137Z,79.05
2018-07-13T02:57:01.184Z,79.05
2018-07-13T02:58:01.256Z,78.99
2018-07-13T02:59:01.109Z,78.86
2018-07-13T03:00:02.405Z,79.05
2018-07-13T03:01:01.093Z,78.95
2018-07-13T03:02:01.181Z,78.28
2018-07-13T03:03:02.062Z,78.66
2018-07-13T03:04:02.206Z,78.57
2018-07-13T03:05:01.374Z,78.09
2018-07-13T03:06:01.405Z,78.47
2018-07-13T03:07:01.147Z,77.90
2018-07-13T03:08:01.213Z,77.70
2018-07-13T03:09:01.230Z,77.70
2018-07-13T03:10:03.590Z,77.80
2018-07-13T03:11:01.869Z,76.94
2018-07-13T03:12:01.858Z,77.23
2018-07-13T03:13:01.067Z,77.04
2018-07-13T03:14:02.204Z,76.46
2018-07-13T03:15:01.887Z,76.94
2018-07-13T03:16:01.821Z,76.65
2018-07-13T03:17:03.239Z,76.56
2018-07-13T03:18:01.234Z,76.08
2018-07-13T03:19:01.374Z,76.37
2018-07-13T03:20:01.198Z,75.98
2018-07-13T03:21:01.194Z,76.18
2018-07-13T03:22:01.229Z,75.79
2018-07-13T03:23:03.526Z,75.31
2018-07-13T03:24:01.246Z,75.31
2018-07-13T03:25:01.155Z,75.45
2018-07-13T03:26:01.347Z,75.41
2018-07-13T03:27:02.365Z,75.31
2018-07-13T03:28:01.261Z,76.21
2018-07-13T03:29:01.477Z,76.60
2018-07-13T03:30:01.519Z,76.21
2018-07-13T03:31:01.391Z,77.04
2018-07-13T03:32:02.104Z,76.65
2018-07-13T03:33:01.407Z,77.42
2018-07-13T03:34:01.339Z,76.75
2018-07-13T03:35:01.485Z,76.84
2018-07-13T03:36:01.430Z,76.84
2018-07-13T03:37:01.248Z,76.56
2018-07-13T03:38:01.575Z,76.94
2018-07-13T03:39:02.138Z,76.37
2018-07-13T03:40:02.733Z,76.18
2018-07-13T03:41:01.371Z,76.18
2018-07-13T03:42:01.367Z,76.27
2018-07-13T03:43:01.872Z,76.65
2018-07-13T03:44:03.140Z,76.46
2018-07-13T03:45:01.247Z,77.42
2018-07-13T03:46:01.305Z,77.42
2018-07-13T03:47:01.634Z,76.65
2018-07-13T03:48:01.103Z,75.98
2018-07-13T03:49:01.494Z,76.18
2018-07-13T03:50:02.403Z,76.08
2018-07-13T03:51:01.338Z,76.27
2018-07-13T03:52:01.423Z,76.18
2018-07-13T03:53:01.627Z,76.18
2018-07-13T03:54:01.382Z,76.94
2018-07-13T03:55:01.496Z,76.79
2018-07-13T03:56:01.410Z,77.23
2018-07-13T03:57:01.533Z,76.65
2018-07-13T03:58:01.584Z,77.75
2018-07-13T03:59:02.355Z,77.65
2018-07-13T04:00:01.217Z,77.36
2018-07-13T04:01:01.350Z,77.94
2018-07-13T04:02:01.450Z,77.94
2018-07-13T04:03:02.462Z,78.03
2018-07-13T04:04:03.550Z,78.80
2018-07-13T04:05:02.123Z,79.28
2018-07-13T04:06:01.598Z,79.66
2018-07-13T04:07:01.347Z,80.04
2018-07-13T04:08:01.370Z,80.24
2018-07-13T04:09:01.477Z,80.14
2018-07-13T04:10:01.836Z,80.24
2018-07-13T04:11:02.047Z,80.71
2018-07-13T04:12:01.211Z,80.90
2018-07-13T04:13:01.189Z,81.29
2018-07-13T04:14:01.352Z,81.33
2018-07-13T04:15:01.511Z,81.57
2018-07-13T04:16:01.370Z,82.06
2018-07-13T04:17:02.468Z,82.29
2018-07-13T04:18:01.528Z,82.63
2018-07-13T04:19:01.414Z,82.63
2018-07-13T04:20:01.359Z,82.82
2018-07-13T04:21:01.390Z,83.25
2018-07-13T04:22:01.900Z,83.63
2018-07-13T04:23:01.346Z,83.82
2018-07-13T04:24:01.410Z,84.11
2018-07-13T04:25:01.244Z,84.11
2018-07-13T04:26:01.459Z,85.35
2018-07-13T04:27:02.003Z,85.74
2018-07-13T04:28:01.342Z,86.12
2018-07-13T04:29:01.432Z,86.02
2018-07-13T04:30:01.439Z,85.54
2018-07-13T04:31:01.355Z,85.93
2018-07-13T04:32:01.385Z,85.35
2018-07-13T04:33:01.330Z,85.74
2018-07-13T04:34:01.424Z,85.64
2018-07-13T04:35:01.344Z,85.54
2018-07-13T04:36:01.855Z,85.74
2018-07-13T04:37:01.284Z,85.93
2018-07-13T04:38:01.208Z,86.02
2018-07-13T04:39:01.439Z,86.69
2018-07-13T04:40:01.223Z,87.41
2018-07-13T04:41:02.011Z,87.17
2018-07-13T04:42:01.567Z,86.83
2018-07-13T04:43:01.468Z,88.37
2018-07-13T04:44:01.333Z,87.60
2018-07-13T04:45:01.412Z,87.79
2018-07-13T04:46:01.366Z,87.79
2018-07-13T04:47:01.279Z,87.50
2018-07-13T04:48:01.415Z,87.79
2018-07-13T04:49:01.528Z,87.50
2018-07-13T04:50:01.467Z,88.03
2018-07-13T04:51:01.660Z,87.84
2018-07-13T04:52:02.357Z,87.50
2018-07-13T04:53:01.918Z,87.79
2018-07-13T04:54:02.333Z,87.98
2018-07-13T04:55:01.674Z,88.84
2018-07-13T04:56:01.427Z,88.84
2018-07-13T04:57:01.503Z,88.94
2018-07-13T04:58:01.606Z,89.04
2018-07-13T04:59:01.651Z,89.75
2018-07-13T05:00:01.590Z,89.85
2018-07-13T05:01:01.312Z,91.28
2018-07-13T05:02:03.260Z,91.38
2018-07-13T05:03:02.256Z,91.38
2018-07-13T05:04:01.978Z,92.15
2018-07-13T05:05:01.804Z,91.86
2018-07-13T05:06:02.156Z,91.09
2018-07-13T05:07:01.583Z,91.48
2018-07-13T05:08:01.468Z,91.09
2018-07-13T05:09:01.682Z,91.96
2018-07-13T05:10:01.590Z,91.67
2018-07-13T05:11:01.438Z,91.96
2018-07-13T05:12:02.085Z,91.86
2018-07-13T05:13:01.704Z,90.81
2018-07-13T05:14:02.161Z,91.38
2018-07-13T05:15:02.603Z,91.48
2018-07-13T05:16:01.449Z,91.19
2018-07-13T05:17:02.330Z,91.57
2018-07-13T05:18:01.798Z,91.48
2018-07-13T05:19:01.650Z,91.77
2018-07-13T05:20:01.765Z,92.05
2018-07-13T05:21:01.758Z,91.00
2018-07-13T05:22:01.391Z,90.33
2018-07-13T05:23:01.298Z,91.19
2018-07-13T05:24:01.585Z,91.09
2018-07-13T05:25:01.416Z,91.48
2018-07-13T05:26:01.876Z,92.24
2018-07-13T05:27:01.612Z,91.67
2018-07-13T05:28:01.605Z,91.96
2018-07-13T05:29:01.490Z,92.34
2018-07-13T05:30:01.999Z,92.24
2018-07-13T05:31:02.001Z,92.72
2018-07-13T05:32:01.510Z,93.88
2018-07-13T05:33:01.913Z,94.17
2018-07-13T05:34:01.690Z,94.64
2018-07-13T05:35:01.390Z,94.54
2018-07-13T05:36:01.661Z,94.07
2018-07-13T05:37:01.653Z,94.54
2018-07-13T05:38:01.546Z,94.35
2018-07-13T05:39:01.627Z,93.88
2018-07-13T05:40:02.113Z,94.93
2018-07-13T05:41:01.557Z,95.21
2018-07-13T05:42:01.933Z,94.26
2018-07-13T05:43:01.876Z,94.54
2018-07-13T05:44:01.539Z,94.64
2018-07-13T05:45:01.586Z,94.35
2018-07-13T05:46:01.635Z,96.47
2018-07-13T05:47:01.613Z,96.37
2018-07-13T05:48:01.901Z,95.21
2018-07-13T05:49:01.544Z,94.74
2018-07-13T05:50:01.484Z,94.74
2018-07-13T05:51:01.577Z,96.56
2018-07-13T05:52:01.650Z,95.79
2018-07-13T05:53:01.643Z,95.31
2018-07-13T05:54:01.918Z,95.98
2018-07-13T05:55:01.585Z,95.70
2018-07-13T05:56:01.600Z,96.27
2018-07-13T05:57:01.769Z,95.70
2018-07-13T05:58:04.453Z,95.60
2018-07-13T05:59:01.451Z,95.60
2018-07-13T06:00:01.908Z,96.37
2018-07-13T06:01:02.680Z,97.33
2018-07-13T06:02:01.978Z,97.38
2018-07-13T06:03:02.260Z,97.76
2018-07-13T06:04:02.199Z,98.91
2018-07-13T06:05:02.464Z,99.77
2018-07-13T06:06:01.779Z,99.53
2018-07-13T06:07:01.677Z,98.67
2018-07-13T06:08:02.571Z,98.72
2018-07-13T06:09:01.510Z,99.29
2018-07-13T06:11:02.013Z,99.29
2018-07-13T06:12:01.454Z,99.99
2018-07-13T06:13:01.689Z,99.77
2018-07-13T06:14:01.924Z,99.99
2018-07-13T06:15:01.687Z,99.99
2018-07-13T06:16:01.819Z,99.99
2018-07-13T06:17:02.414Z,99.29
2018-07-13T06:20:34.757Z,99.99
2018-07-13T06:21:34.418Z,99.99
2018-07-13T06:22:34.324Z,99.99
2018-07-13T06:23:34.321Z,99.99
2018-07-13T06:24:34.427Z,99.99
2018-07-13T06:25:35.463Z,99.99
2018-07-13T06:26:34.753Z,99.99
2018-07-13T06:27:34.324Z,99.99
2018-07-13T06:28:34.282Z,99.99
2018-07-13T06:29:34.322Z,99.99
2018-07-13T06:30:34.303Z,99.99
2018-07-13T06:31:34.316Z,99.99
2018-07-13T06:32:34.298Z,99.99
2018-07-13T06:33:34.961Z,99.99
2018-07-13T06:34:34.342Z,99.99
2018-07-13T06:35:34.393Z,99.99
2018-07-13T06:36:34.298Z,99.99
2018-07-13T06:37:34.315Z,99.99
2018-07-13T06:38:34.298Z,99.99
2018-07-13T06:39:34.395Z,99.99
2018-07-13T06:40:34.313Z,99.99
2018-07-13T06:41:34.321Z,99.99
2018-07-13T06:42:34.377Z,99.99
2018-07-13T06:43:34.309Z,99.99
2018-07-13T06:44:34.328Z,99.99
2018-07-13T06:45:34.364Z,99.99
2018-07-13T06:46:34.423Z,99.99
2018-07-13T06:47:34.401Z,99.99
2018-07-13T06:48:34.368Z,99.99
2018-07-13T06:49:34.427Z,99.99
2018-07-13T06:50:34.393Z,99.99
2018-07-13T06:51:34.351Z,99.99
2018-07-13T06:52:34.340Z,99.99
2018-07-13T06:53:34.387Z,99.99
2018-07-13T06:54:34.396Z,99.99
2018-07-13T06:55:34.432Z,99.99
2018-07-13T06:56:34.372Z,99.99
2018-07-13T06:57:34.369Z,99.99
2018-07-13T06:58:34.342Z,99.99
2018-07-13T06:59:34.391Z,99.99
2018-07-13T07:00:34.434Z,99.99
2018-07-13T07:01:34.376Z,99.99
2018-07-13T07:02:34.416Z,99.99
2018-07-13T07:03:34.389Z,99.99
2018-07-13T07:04:34.399Z,99.99
2018-07-13T07:05:34.361Z,99.99
2018-07-13T07:06:34.413Z,99.99
2018-07-13T07:07:34.471Z,99.99
2018-07-13T07:08:36.951Z,99.99
2018-07-13T07:09:51.601Z,99.99
2018-07-13T07:12:36.886Z,99.99
2018-07-13T07:13:37.181Z,99.99
2018-07-13T07:14:38.818Z,99.99
2018-07-13T07:15:35.653Z,99.99
2018-07-13T07:16:35.345Z,99.99
2018-07-13T07:17:38.413Z,99.99
2018-07-13T07:18:36.276Z,99.99
2018-07-13T07:24:20.124Z,99.99
2018-07-13T07:25:19.539Z,99.99
2018-07-13T07:26:19.337Z,99.99
2018-07-13T07:27:21.069Z,99.99
2018-07-13T07:28:20.671Z,99.99
2018-07-13T07:29:19.776Z,99.99
2018-07-13T07:30:19.820Z,99.99
2018-07-13T07:31:19.682Z,99.99
2018-07-13T07:32:20.014Z,99.99
2018-07-13T07:33:19.183Z,99.99
2018-07-13T07:34:19.801Z,99.99
2018-07-13T07:35:19.107Z,99.99
2018-07-13T07:36:19.155Z,99.99
2018-07-13T07:37:19.135Z,99.99
2018-07-13T07:38:19.201Z,99.99
2018-07-13T07:39:19.083Z,99.99
2018-07-13T07:40:19.093Z,99.99
2018-07-13T07:41:19.190Z,99.99
2018-07-13T07:42:19.127Z,99.99
2018-07-13T07:43:19.157Z,99.99
2018-07-13T07:44:19.088Z,99.99
2018-07-13T07:45:19.673Z,99.99
2018-07-13T07:46:19.230Z,99.99
2018-07-13T07:47:19.076Z,99.99
2018-07-13T07:48:19.178Z,99.99
2018-07-13T07:49:19.071Z,99.99
2018-07-13T07:50:19.102Z,99.99
2018-07-13T07:51:19.128Z,99.99
2018-07-13T07:52:19.306Z,99.99
2018-07-13T07:53:19.115Z,99.99
2018-07-13T07:54:19.221Z,99.99
2018-07-13T07:55:19.131Z,98.58
2018-07-13T07:56:19.120Z,92.49
2018-07-13T07:57:19.132Z,91.17
2018-07-13T07:58:19.138Z,90.50
2018-07-13T07:59:19.784Z,87.58
2018-07-13T08:00:19.142Z,87.09
2018-07-13T08:01:19.123Z,87.09
2018-07-13T08:02:19.130Z,83.34
2018-07-13T08:03:19.169Z,82.38
2018-07-13T08:04:19.892Z,83.54
2018-07-13T08:05:19.477Z,81.84
2018-07-13T08:06:19.336Z,80.81
2018-07-13T08:07:19.386Z,78.07
2018-07-13T08:08:19.199Z,78.11
2018-07-13T08:09:19.191Z,78.66
2018-07-13T08:10:19.202Z,77.35
2018-07-13T08:11:19.224Z,78.20
2018-07-13T08:12:19.221Z,79.10
2018-07-13T08:13:19.230Z,81.57
2018-07-13T08:14:19.393Z,80.93
2018-07-13T08:15:20.189Z,81.62
2018-07-13T08:16:19.324Z,83.35
2018-07-13T08:17:19.325Z,81.82
2018-07-13T08:18:19.396Z,77.39
2018-07-13T08:19:19.316Z,77.15
2018-07-13T08:20:19.309Z,79.55
2018-07-13T08:21:19.344Z,81.06
2018-07-13T08:22:19.338Z,79.30
2018-07-13T08:23:19.370Z,78.61
2018-07-13T08:24:19.367Z,78.85
2018-07-13T08:25:19.419Z,77.47
2018-07-13T08:26:19.415Z,74.61
2018-07-13T08:27:19.425Z,74.32
2018-07-13T08:28:19.427Z,75.38
2018-07-13T08:29:19.458Z,76.35
2018-07-13T08:30:19.451Z,75.09
2018-07-13T08:31:19.620Z,75.09
2018-07-13T08:32:19.500Z,73.28
2018-07-13T08:33:19.539Z,75.09
2018-07-13T08:34:19.544Z,75.99
2018-07-13T08:35:19.586Z,77.90
2018-07-13T08:36:19.550Z,76.67
2018-07-13T08:37:19.622Z,75.70
2018-07-13T08:38:19.867Z,75.68
2018-07-13T08:39:20.244Z,73.93
2018-07-13T08:40:19.737Z,74.00
2018-07-13T08:41:19.666Z,75.16
2018-07-13T08:42:19.626Z,74.33
2018-07-13T08:43:19.659Z,72.67
2018-07-13T08:44:19.712Z,70.76
2018-07-13T08:45:20.024Z,70.98
2018-07-13T08:46:20.776Z,71.41
2018-07-13T08:47:19.758Z,72.67
2018-07-13T08:48:19.750Z,71.99
2018-07-13T08:49:19.845Z,71.21
2018-07-13T08:50:19.857Z,71.05
2018-07-13T08:51:19.786Z,72.64
2018-07-13T08:52:19.917Z,72.99
2018-07-13T08:53:19.847Z,74.02
2018-07-13T08:54:19.949Z,74.76
2018-07-13T08:55:19.887Z,75.68
2018-07-13T08:56:19.933Z,75.15
2018-07-13T08:57:21.823Z,73.67
2018-07-13T08:58:19.900Z,72.60
2018-07-13T08:59:19.940Z,72.96
2018-07-13T09:00:19.930Z,72.25
2018-07-13T09:01:20.064Z,71.82
2018-07-13T09:02:20.011Z,74.88
2018-07-13T09:03:20.058Z,75.80
2018-07-13T09:04:20.072Z,75.41
2018-07-13T09:05:20.092Z,75.95
2018-07-13T09:06:20.048Z,76.97
2018-07-13T09:07:20.079Z,74.90
2018-07-13T09:08:20.075Z,73.21
2018-07-13T09:09:20.081Z,75.29
2018-07-13T09:10:20.101Z,73.44
2018-07-13T09:11:20.122Z,73.73
2018-07-13T09:12:20.219Z,74.16
2018-07-13T09:13:20.198Z,71.50
2018-07-13T09:14:20.329Z,70.76
2018-07-13T09:15:20.270Z,71.05
2018-07-13T09:16:20.293Z,72.73
2018-07-13T09:17:20.229Z,71.77
2018-07-13T09:18:20.366Z,69.56
2018-07-13T09:19:20.306Z,70.56
2018-07-13T09:20:21.268Z,68.80
2018-07-13T09:21:20.312Z,68.77
2018-07-13T09:22:20.396Z,68.10
2018-07-13T09:23:20.364Z,68.06
2018-07-13T09:24:20.500Z,69.04
2018-07-13T09:25:20.467Z,69.20
2018-07-13T09:26:20.405Z,69.46
2018-07-13T09:27:20.432Z,68.10
2018-07-13T09:28:20.443Z,69.10
2018-07-13T09:29:20.462Z,70.66
2018-07-13T09:30:20.476Z,69.26
2018-07-13T09:31:20.577Z,68.10
2018-07-13T09:32:20.624Z,69.53
2018-07-13T09:33:20.582Z,67.90
2018-07-13T09:34:20.622Z,70.07
2018-07-13T09:35:20.674Z,70.07
2018-07-13T09:36:20.649Z,68.19
2018-07-13T09:37:20.665Z,69.84
2018-07-13T09:38:21.286Z,72.83
2018-07-13T09:39:20.685Z,69.59
2018-07-13T09:40:20.701Z,68.39
2018-07-13T09:41:20.724Z,67.93
2018-07-13T09:42:21.769Z,66.86
2018-07-13T09:43:23.394Z,67.28
2018-07-13T09:44:20.961Z,67.77
2018-07-13T09:45:20.926Z,68.84
2018-07-13T09:46:21.072Z,67.54
2018-07-13T09:47:23.384Z,66.50
2018-07-13T09:48:20.854Z,64.78
2018-07-13T09:49:20.891Z,64.65
2018-07-13T09:50:20.938Z,64.94
2018-07-13T09:51:21.892Z,64.48
2018-07-13T09:52:21.085Z,63.50
2018-07-13T09:53:21.031Z,62.36
2018-07-13T09:54:20.982Z,62.79
2018-07-13T09:55:20.990Z,62.66
2018-07-13T09:56:21.043Z,65.39
2018-07-13T09:57:21.761Z,65.72
2018-07-13T09:58:21.111Z,64.09
2018-07-13T09:59:21.105Z,65.66
2018-07-13T10:00:21.127Z,65.14
2018-07-13T10:01:21.167Z,64.68
2018-07-13T10:02:21.139Z,66.96
2018-07-13T10:03:21.237Z,65.72
2018-07-13T10:04:21.305Z,63.60
2018-07-13T10:05:21.225Z,61.80
2018-07-13T10:06:21.218Z,60.83
2018-07-13T10:07:21.451Z,62.01
2018-07-13T10:08:21.307Z,61.97
2018-07-13T10:09:21.305Z,63.44
2018-07-13T10:10:21.306Z,64.71
2018-07-13T10:11:21.338Z,64.06
2018-07-13T10:12:21.419Z,62.79
2018-07-13T10:13:21.427Z,62.40
2018-07-13T10:14:22.412Z,62.79
2018-07-13T10:15:21.486Z,61.06
2018-07-13T10:16:21.501Z,62.70
2018-07-13T10:17:21.542Z,61.43
2018-07-13T10:18:21.580Z,63.60
2018-07-13T10:19:21.572Z,65.17
2018-07-13T10:20:21.584Z,65.07
2018-07-13T10:21:21.595Z,64.03
2018-07-13T10:22:21.574Z,61.84
2018-07-13T10:23:21.619Z,62.76
2018-07-13T10:24:22.307Z,63.41
2018-07-13T10:25:21.654Z,62.60
2018-07-13T10:26:21.706Z,63.51
2018-07-13T10:27:21.779Z,62.70
2018-07-13T10:28:21.742Z,60.96
2018-07-13T10:29:21.756Z,61.87
2018-07-13T10:30:22.650Z,61.48
2018-07-13T10:31:21.881Z,61.72
2018-07-13T10:32:21.803Z,62.79
2018-07-13T10:33:21.885Z,63.12
2018-07-13T10:34:21.919Z,62.13
2018-07-13T10:35:21.904Z,61.94
2018-07-13T10:36:22.007Z,62.29
2018-07-13T10:37:21.944Z,61.44
2018-07-13T10:38:21.914Z,59.59
2018-07-13T10:39:21.962Z,60.17
2018-07-13T10:40:21.952Z,61.32
2018-07-13T10:41:21.977Z,62.85
2018-07-13T10:42:22.019Z,62.56
2018-07-13T10:43:22.086Z,63.54
2018-07-13T10:44:22.033Z,63.90
2018-07-13T10:45:22.168Z,65.10
2018-07-13T10:46:22.076Z,64.84
2018-07-13T10:47:22.102Z,63.93
2018-07-13T10:48:22.138Z,63.80
2018-07-13T10:49:22.797Z,63.80
2018-07-13T10:50:22.198Z,64.58
2018-07-13T10:51:22.174Z,66.76
2018-07-13T10:52:22.234Z,67.57
2018-07-13T10:53:22.254Z,67.08
2018-07-13T10:54:22.235Z,67.54
2018-07-13T10:55:22.316Z,66.83
2018-07-13T10:56:22.257Z,67.41
2018-07-13T10:57:22.278Z,66.21
2018-07-13T10:58:22.293Z,67.02
2018-07-13T10:59:22.797Z,68.54
2018-07-13T11:00:22.350Z,69.90
2018-07-13T11:01:22.347Z,70.78
2018-07-13T11:02:22.346Z,69.58
2018-07-13T11:03:22.370Z,72.53
2018-07-13T11:04:22.407Z,71.94
2018-07-13T11:05:22.439Z,70.78
2018-07-13T11:06:22.415Z,70.62
2018-07-13T11:07:22.515Z,70.46
2018-07-13T11:08:22.481Z,71.82
2018-07-13T11:09:23.304Z,71.82
2018-07-13T11:10:22.468Z,69.78
2018-07-13T11:11:22.456Z,70.52
2018-07-13T11:12:22.526Z,71.11
2018-07-13T11:13:22.494Z,70.00
2018-07-13T11:14:22.497Z,69.51
2018-07-13T11:15:23.440Z,70.39
2018-07-13T11:16:22.542Z,71.75
2018-07-13T11:17:22.549Z,72.43
2018-07-13T11:18:22.545Z,71.46
2018-07-13T11:19:23.317Z,71.11
2018-07-13T11:20:22.582Z,71.01
2018-07-13T11:21:22.626Z,70.13
2018-07-13T11:22:22.712Z,70.42
2018-07-13T11:23:22.664Z,69.65
2018-07-13T11:24:22.700Z,69.74
2018-07-13T11:25:22.611Z,70.04
2018-07-13T11:26:22.899Z,70.52
2018-07-13T11:27:22.757Z,70.81
2018-07-13T11:28:22.762Z,69.55
2018-07-13T11:29:22.923Z,70.13
2018-07-13T11:30:22.706Z,70.46
2018-07-13T11:31:22.761Z,69.65
2018-07-13T11:32:22.840Z,69.13
2018-07-13T11:33:22.742Z,70.78
2018-07-13T11:34:22.784Z,70.72
2018-07-13T11:35:22.815Z,69.03
2018-07-13T11:36:22.776Z,70.10
2018-07-13T11:38:38.361Z,70.13
2018-07-13T11:39:23.837Z,68.77
2018-07-13T11:40:22.849Z,67.67
2018-07-13T11:41:23.342Z,69.13
2018-07-13T11:42:30.344Z,70.04
2018-07-13T11:43:22.835Z,69.65
2018-07-13T11:44:43.906Z,68.90
2018-07-13T11:45:22.893Z,69.67
2018-07-13T11:46:22.844Z,69.51
2018-07-13T11:47:22.902Z,71.75
2018-07-13T11:48:22.906Z,70.81
2018-07-13T11:49:22.936Z,70.23
2018-07-13T11:50:43.917Z,68.90
2018-07-13T11:51:22.886Z,68.12
2018-07-13T11:52:22.923Z,67.44
2018-07-13T11:53:23.104Z,68.29
2018-07-13T11:54:24.968Z,68.02
2018-07-13T11:55:23.015Z,68.12
2018-07-13T11:56:43.971Z,67.90
2018-07-13T11:57:23.036Z,68.67
2018-07-13T11:58:24.351Z,68.38
2018-07-13T11:59:23.013Z,68.77
2018-07-13T12:00:23.020Z,68.19
2018-07-13T12:01:23.843Z,68.12
2018-07-13T12:02:45.147Z,68.84
2018-07-13T12:03:23.065Z,68.93
2018-07-13T12:04:23.848Z,69.67
2018-07-13T12:05:23.052Z,70.51
2018-07-13T12:06:23.005Z,70.16
2018-07-13T12:07:25.249Z,71.62
2018-07-13T12:08:44.064Z,70.26
2018-07-13T12:09:23.065Z,70.97
2018-07-13T12:10:23.140Z,69.61
2018-07-13T12:12:23.107Z,69.84
2018-07-13T12:13:23.106Z,68.19
2018-07-13T12:14:44.114Z,68.74
2018-07-13T12:15:23.972Z,68.44
2018-07-13T12:16:23.097Z,70.10
2018-07-13T12:17:23.196Z,69.13
2018-07-13T12:18:23.110Z,69.45
2018-07-13T12:19:23.094Z,70.52
2018-07-13T12:20:44.124Z,69.94
2018-07-13T12:21:23.132Z,70.62
2018-07-13T12:22:23.148Z,68.93
2018-07-13T12:25:33.925Z,69.19
2018-07-13T12:26:32.125Z,69.96
2018-07-13T12:27:32.161Z,69.48
2018-07-13T12:28:32.165Z,70.45
2018-07-13T12:29:33.007Z,71.13
2018-07-13T12:30:35.750Z,70.87
2018-07-13T12:31:32.083Z,71.03
2018-07-13T12:32:32.176Z,70.75
2018-07-13T12:33:32.122Z,70.97
2018-07-13T12:34:32.150Z,71.66
2018-07-13T12:35:32.082Z,70.97
2018-07-13T12:36:32.137Z,69.71
2018-07-13T12:37:32.119Z,70.65
2018-07-13T12:38:32.091Z,71.03
2018-07-13T12:39:32.152Z,71.62
2018-07-13T12:40:32.120Z,71.52
2018-07-13T12:41:32.105Z,71.62
2018-07-13T12:42:32.113Z,72.33
2018-07-13T12:43:32.132Z,71.07
2018-07-13T12:44:32.140Z,70.97
2018-07-13T12:45:32.138Z,70.49
2018-07-13T12:46:32.135Z,71.56
2018-07-13T12:47:32.156Z,71.07
2018-07-13T12:48:32.219Z,70.20
2018-07-13T12:49:32.167Z,70.20
2018-07-13T12:50:32.172Z,70.29
2018-07-13T12:51:32.213Z,70.58
2018-07-13T12:52:32.195Z,69.77
2018-07-13T12:53:32.225Z,70.45
2018-07-13T12:54:32.300Z,69.96
2018-07-13T12:55:32.237Z,70.84
2018-07-13T13:05:52.737Z,69.29
2018-07-13T13:08:43.171Z,72.49
2018-07-13T13:09:42.853Z,71.13
2018-07-13T13:10:42.417Z,70.97
2018-07-13T13:11:41.980Z,70.00
2018-07-13T13:12:42.694Z,71.26
2018-07-13T13:13:42.069Z,70.68
2018-07-13T13:14:42.226Z,70.36
2018-07-13T13:15:42.458Z,69.54
2018-07-13T13:16:42.062Z,71.55
2018-07-13T13:17:41.989Z,72.07
2018-07-13T13:18:41.996Z,72.61